createdAt,value
2017-08-24T00:01:24.844Z,87.50
2017-08-24T00:03:55.291Z,87.20
2017-08-24T00:06:26.093Z,87.20
2017-08-24T00:08:56.787Z,87.00
2017-08-24T00:11:28.001Z,86.60
2017-08-24T00:13:58.775Z,86.40
2017-08-24T00:16:31.477Z,86.20
2017-08-24T00:19:02.440Z,85.90
2017-08-24T00:21:33.602Z,85.50
2017-08-24T00:24:04.484Z,85.20
2017-08-24T00:26:35.537Z,85.10
2017-08-24T00:29:06.516Z,84.80
2017-08-24T00:31:37.773Z,84.40
2017-08-24T00:34:08.763Z,83.80
2017-08-24T00:36:39.887Z,83.30
2017-08-24T00:39:11.028Z,83.30
2017-08-24T00:41:42.270Z,82.40
2017-08-24T00:44:13.465Z,82.20
2017-08-24T00:46:44.737Z,82.00
2017-08-24T00:49:16.002Z,82.20
2017-08-24T00:51:47.212Z,82.30
2017-08-24T00:54:18.477Z,81.80
2017-08-24T00:56:50.857Z,81.10
2017-08-24T00:59:22.039Z,80.20
2017-08-24T01:01:53.029Z,78.20
2017-08-24T01:04:24.250Z,76.10
2017-08-24T01:06:55.421Z,73.10
2017-08-24T01:09:26.562Z,72.30
2017-08-24T01:11:58.902Z,73.10
2017-08-24T01:14:30.098Z,73.10
2017-08-24T01:17:01.332Z,73.30
2017-08-24T01:19:32.474Z,71.20
2017-08-24T01:22:04.874Z,69.90
2017-08-24T01:24:35.990Z,66.50
2017-08-24T01:27:10.537Z,66.20
2017-08-24T01:29:41.860Z,66.20
2017-08-24T01:32:13.072Z,65.80
2017-08-24T01:34:45.156Z,65.00
2017-08-24T01:37:16.258Z,64.80
2017-08-24T01:39:47.566Z,66.20
2017-08-24T01:42:18.827Z,64.90
2017-08-24T01:44:50.138Z,65.40
2017-08-24T01:47:21.364Z,64.00
2017-08-24T01:49:52.442Z,63.30
2017-08-24T01:52:23.647Z,62.70
2017-08-24T01:54:54.702Z,61.50
2017-08-24T01:57:25.233Z,61.00
2017-08-24T01:59:55.761Z,58.50
2017-08-24T02:02:26.312Z,57.00
2017-08-24T02:04:56.832Z,57.50
2017-08-24T02:07:27.212Z,57.20
2017-08-24T02:09:57.651Z,57.80
2017-08-24T02:12:28.082Z,58.90
2017-08-24T02:14:58.378Z,58.60
2017-08-24T02:17:28.991Z,57.80
2017-08-24T02:19:59.665Z,56.40
2017-08-24T02:22:30.255Z,56.70
2017-08-24T02:25:00.895Z,57.30
2017-08-24T02:27:32.172Z,57.00
2017-08-24T02:30:02.696Z,56.90
2017-08-24T02:32:34.006Z,57.30
2017-08-24T02:35:04.524Z,57.30
2017-08-24T02:37:34.990Z,57.80
2017-08-24T02:40:06.410Z,58.40
2017-08-24T02:42:36.979Z,58.30
2017-08-24T02:45:07.587Z,58.00
2017-08-24T02:47:38.113Z,58.40
2017-08-24T02:50:08.690Z,58.40
2017-08-24T02:52:39.468Z,58.80
2017-08-24T02:55:10.076Z,58.50
2017-08-24T02:57:40.602Z,59.20
2017-08-24T03:00:11.268Z,58.10
2017-08-24T03:02:41.672Z,58.60
2017-08-24T03:05:15.072Z,58.10
2017-08-24T03:07:45.511Z,57.70
2017-08-24T03:10:15.978Z,57.00
2017-08-24T03:12:46.820Z,56.80
2017-08-24T03:15:17.777Z,55.90
2017-08-24T03:17:49.150Z,55.40
2017-08-24T03:20:19.786Z,55.30
2017-08-24T03:22:50.437Z,55.20
2017-08-24T03:25:20.979Z,55.10
2017-08-24T03:27:51.393Z,54.60
2017-08-24T03:30:22.151Z,54.80
2017-08-24T03:32:52.528Z,55.00
2017-08-24T03:35:22.956Z,54.20
2017-08-24T03:37:53.495Z,55.80
2017-08-24T03:40:23.991Z,56.10
2017-08-24T03:42:54.614Z,56.30
2017-08-24T03:45:25.122Z,57.10
2017-08-24T03:47:55.478Z,56.30
2017-08-24T03:50:26.140Z,56.30
2017-08-24T03:52:56.416Z,56.60
2017-08-24T03:55:26.692Z,55.60
2017-08-24T03:57:57.021Z,55.10
2017-08-24T04:00:29.802Z,52.80
2017-08-24T04:03:02.639Z,53.70
2017-08-24T04:05:33.474Z,54.30
2017-08-24T04:08:03.952Z,54.40
2017-08-24T04:10:34.344Z,55.10
2017-08-24T04:13:05.328Z,54.10
2017-08-24T04:15:36.046Z,55.40
2017-08-24T04:18:06.714Z,54.20
2017-08-24T04:20:37.196Z,53.90
2017-08-24T04:23:07.959Z,53.20
2017-08-24T04:25:38.377Z,52.60
2017-08-24T04:28:09.085Z,51.80
2017-08-24T04:30:39.696Z,51.00
2017-08-24T04:33:10.229Z,51.00
2017-08-24T04:35:40.763Z,50.70
2017-08-24T04:38:11.370Z,50.00
2017-08-24T04:40:41.978Z,50.20
2017-08-24T04:43:12.631Z,49.60
2017-08-24T04:45:43.250Z,49.80
2017-08-24T04:48:13.794Z,48.20
2017-08-24T04:50:44.282Z,48.80
2017-08-24T04:53:15.268Z,49.20
2017-08-24T04:55:46.375Z,50.20
2017-08-24T04:58:16.801Z,49.40
2017-08-24T05:00:47.430Z,49.30
2017-08-24T05:03:18.638Z,49.80
2017-08-24T05:05:49.039Z,49.70
2017-08-24T05:08:19.561Z,48.80
2017-08-24T05:10:50.012Z,49.20
2017-08-24T05:13:21.022Z,49.60
2017-08-24T05:15:51.493Z,49.70
2017-08-24T05:18:22.228Z,49.30
2017-08-24T05:20:52.768Z,48.70
2017-08-24T05:23:23.063Z,50.20
2017-08-24T05:25:53.793Z,50.40
2017-08-24T05:28:24.334Z,51.10
2017-08-24T05:30:54.752Z,50.30
2017-08-24T05:33:25.178Z,50.40
2017-08-24T05:35:55.784Z,51.00
2017-08-24T05:38:27.081Z,51.30
2017-08-24T05:40:57.458Z,50.70
2017-08-24T05:43:28.653Z,51.40
2017-08-24T05:45:59.028Z,51.30
2017-08-24T05:48:29.483Z,50.70
2017-08-24T05:50:59.991Z,50.50
2017-08-24T05:53:30.418Z,50.90
2017-08-24T05:56:01.014Z,50.60
2017-08-24T05:58:31.547Z,50.50
2017-08-24T06:01:02.167Z,51.10
2017-08-24T06:03:32.678Z,51.40
2017-08-24T06:06:03.133Z,52.30
2017-08-24T06:08:33.648Z,51.50
2017-08-24T06:11:04.104Z,52.00
2017-08-24T06:13:34.867Z,49.70
2017-08-24T06:16:05.197Z,50.40
2017-08-24T06:18:35.700Z,50.30
2017-08-24T06:21:06.207Z,50.60
2017-08-24T06:23:36.614Z,50.30
2017-08-24T06:26:07.152Z,49.90
2017-08-24T06:28:37.562Z,50.90
2017-08-24T06:31:08.052Z,50.50
2017-08-24T06:33:38.501Z,50.50
2017-08-24T06:36:08.803Z,50.60
2017-08-24T06:38:39.399Z,50.20
2017-08-24T06:41:09.832Z,50.00
2017-08-24T06:43:40.315Z,49.80
2017-08-24T06:46:10.762Z,48.70
2017-08-24T06:48:41.135Z,48.70
2017-08-24T06:51:11.725Z,48.90
2017-08-24T06:53:42.175Z,49.60
2017-08-24T06:56:12.760Z,48.90
2017-08-24T06:58:43.186Z,49.10
2017-08-24T07:01:13.576Z,50.00
2017-08-24T07:03:44.091Z,48.50
2017-08-24T07:06:14.684Z,48.90
2017-08-24T07:08:50.264Z,49.70
2017-08-24T07:11:20.790Z,50.60
2017-08-24T07:13:51.191Z,49.70
2017-08-24T07:16:21.641Z,50.20
2017-08-24T07:18:52.261Z,49.10
2017-08-24T07:21:22.687Z,50.00
2017-08-24T07:23:53.224Z,50.30
2017-08-24T07:26:23.753Z,50.10
2017-08-24T07:28:54.425Z,47.80
2017-08-24T07:31:24.983Z,48.20
2017-08-24T07:33:55.548Z,48.00
2017-08-24T07:36:26.172Z,48.50
2017-08-24T07:38:56.824Z,48.50
2017-08-24T07:41:27.396Z,48.20
2017-08-24T07:43:58.008Z,49.80
2017-08-24T07:46:28.577Z,49.30
2017-08-24T07:48:58.932Z,49.20
2017-08-24T07:51:29.385Z,49.20
2017-08-24T07:53:59.939Z,50.60
2017-08-24T07:56:30.295Z,50.70
2017-08-24T07:59:00.843Z,50.70
2017-08-24T08:01:31.363Z,50.60
2017-08-24T08:04:01.855Z,50.70
2017-08-24T08:06:32.591Z,51.10
2017-08-24T08:09:02.772Z,52.00
2017-08-24T08:11:33.528Z,52.20
2017-08-24T08:14:05.442Z,51.80
2017-08-24T08:16:35.756Z,51.70
2017-08-24T08:19:06.387Z,51.70
2017-08-24T08:21:36.788Z,52.00
2017-08-24T08:24:07.165Z,51.90
2017-08-24T08:26:37.483Z,51.90
2017-08-24T08:29:08.013Z,52.40
2017-08-24T08:31:40.417Z,51.20
2017-08-24T08:34:11.460Z,50.80
2017-08-24T08:36:43.285Z,51.00
2017-08-24T08:39:15.533Z,51.10
2017-08-24T08:41:47.786Z,51.30
2017-08-24T08:44:20.416Z,52.10
2017-08-24T08:46:52.186Z,52.90
2017-08-24T08:49:24.102Z,53.70
2017-08-24T08:51:57.574Z,54.60
2017-08-24T08:54:30.799Z,55.10
2017-08-24T08:57:03.480Z,54.40
2017-08-24T08:59:34.991Z,55.20
2017-08-24T09:02:06.335Z,56.00
2017-08-24T09:04:37.465Z,56.60
2017-08-24T09:07:07.960Z,56.60
2017-08-24T09:09:38.358Z,57.80
2017-08-24T09:12:08.973Z,57.50
2017-08-24T09:14:39.761Z,57.80
2017-08-24T09:17:10.201Z,58.60
2017-08-24T09:19:40.802Z,58.90
2017-08-24T09:22:12.024Z,59.80
2017-08-24T09:24:42.479Z,59.80
2017-08-24T09:27:13.626Z,59.90
2017-08-24T09:29:43.945Z,59.90
2017-08-24T09:32:15.322Z,60.30
2017-08-24T09:34:45.948Z,60.20
2017-08-24T09:37:16.482Z,60.70
2017-08-24T09:39:46.926Z,60.50
2017-08-24T09:42:17.407Z,59.80
2017-08-24T09:44:47.982Z,60.60
2017-08-24T09:47:18.327Z,60.90
2017-08-24T09:49:48.787Z,61.50
2017-08-24T09:52:19.390Z,60.80
2017-08-24T09:54:50.720Z,59.60
2017-08-24T09:57:21.093Z,59.60
2017-08-24T09:59:51.750Z,60.40
2017-08-24T10:02:23.467Z,61.20
2017-08-24T10:04:53.926Z,60.20
2017-08-24T10:07:24.981Z,58.80
2017-08-24T10:09:56.581Z,58.80
2017-08-24T10:12:27.196Z,58.80
2017-08-24T10:14:57.922Z,59.70
2017-08-24T10:17:28.472Z,60.10
2017-08-24T10:19:59.041Z,59.30
2017-08-24T10:22:29.482Z,59.60
2017-08-24T10:25:00.651Z,59.60
2017-08-24T10:27:31.817Z,59.50
2017-08-24T10:30:02.386Z,59.40
2017-08-24T10:32:32.767Z,59.20
2017-08-24T10:35:03.316Z,59.20
2017-08-24T10:37:33.772Z,59.00
2017-08-24T10:40:04.337Z,59.20
2017-08-24T10:42:34.815Z,59.60
2017-08-24T10:45:05.379Z,59.30
2017-08-24T10:47:35.699Z,59.50
2017-08-24T10:50:06.090Z,59.70
2017-08-24T10:52:36.483Z,60.10
2017-08-24T10:55:07.106Z,60.40
2017-08-24T10:57:37.375Z,60.40
2017-08-24T11:00:07.770Z,60.50
2017-08-24T11:02:38.876Z,60.90
2017-08-24T11:05:09.431Z,60.90
2017-08-24T11:07:40.945Z,61.20
2017-08-24T11:10:11.437Z,61.60
2017-08-24T11:12:41.772Z,61.80
2017-08-24T11:15:12.721Z,62.10
2017-08-24T11:17:43.107Z,62.60
2017-08-24T11:20:13.371Z,63.00
2017-08-24T11:22:43.894Z,63.20
2017-08-24T11:25:14.474Z,63.70
2017-08-24T11:27:45.074Z,63.90
2017-08-24T11:30:16.000Z,64.00
2017-08-24T11:32:46.550Z,64.30
2017-08-24T11:35:17.215Z,64.80
2017-08-24T11:37:47.624Z,64.60
2017-08-24T11:40:18.155Z,64.10
2017-08-24T11:42:48.593Z,64.20
2017-08-24T11:45:19.192Z,64.80
2017-08-24T11:47:49.537Z,64.90
2017-08-24T11:50:19.964Z,65.10
2017-08-24T11:52:50.368Z,66.20
2017-08-24T11:55:20.796Z,66.80
2017-08-24T11:57:51.126Z,67.70
2017-08-24T12:00:21.644Z,67.80
2017-08-24T12:02:52.179Z,68.30
2017-08-24T12:05:22.682Z,68.80
2017-08-24T12:07:53.112Z,68.40
2017-08-24T12:10:23.698Z,69.20
2017-08-24T12:12:54.195Z,69.10
2017-08-24T12:15:24.940Z,69.30
2017-08-24T12:17:55.445Z,69.70
2017-08-24T12:20:26.684Z,69.60
2017-08-24T12:22:57.117Z,69.50
2017-08-24T12:25:27.615Z,69.30
2017-08-24T12:28:00.085Z,68.10
2017-08-24T12:30:30.615Z,67.40
2017-08-24T12:33:00.860Z,64.80
2017-08-24T12:35:31.340Z,65.60
2017-08-24T12:38:01.764Z,65.10
2017-08-24T12:40:32.421Z,64.90
2017-08-24T12:43:03.147Z,64.50
2017-08-24T12:45:33.799Z,64.70
2017-08-24T12:48:04.266Z,65.00
2017-08-24T12:50:34.855Z,65.10
2017-08-24T12:53:05.271Z,65.30
2017-08-24T12:55:35.804Z,65.00
2017-08-24T12:58:06.290Z,63.90
2017-08-24T13:00:37.317Z,64.00
2017-08-24T13:03:07.763Z,64.80
2017-08-24T13:05:38.336Z,64.50
2017-08-24T13:08:08.835Z,63.80
2017-08-24T13:10:39.444Z,64.30
2017-08-24T13:13:09.891Z,63.40
2017-08-24T13:15:40.817Z,62.80
2017-08-24T13:18:11.354Z,62.70
2017-08-24T13:20:42.130Z,61.80
2017-08-24T13:23:12.610Z,62.40
2017-08-24T13:25:43.152Z,61.90
2017-08-24T13:28:13.663Z,62.30
2017-08-24T13:30:44.287Z,63.50
2017-08-24T13:33:14.808Z,62.20
2017-08-24T13:35:45.376Z,62.20
2017-08-24T13:38:16.113Z,62.10
2017-08-24T13:40:46.731Z,62.30
2017-08-24T13:43:17.239Z,63.30
2017-08-24T13:45:47.803Z,64.00
2017-08-24T13:48:18.430Z,64.30
2017-08-24T13:50:48.822Z,64.60
2017-08-24T13:53:19.563Z,63.80
2017-08-24T13:55:50.224Z,62.90
2017-08-24T13:58:21.014Z,63.30
2017-08-24T14:00:51.654Z,64.30
2017-08-24T14:03:22.282Z,64.00
2017-08-24T14:05:53.018Z,65.00
2017-08-24T14:08:23.598Z,65.20
2017-08-24T14:10:54.178Z,65.70
2017-08-24T14:13:24.707Z,66.00
2017-08-24T14:15:55.574Z,65.90
2017-08-24T14:18:26.478Z,66.00
2017-08-24T14:20:57.206Z,66.40
2017-08-24T14:23:28.084Z,66.70
2017-08-24T14:25:59.067Z,66.90
2017-08-24T14:28:29.671Z,67.00
2017-08-24T14:31:00.492Z,67.50
2017-08-24T14:33:31.579Z,67.60
2017-08-24T14:36:02.225Z,68.00
2017-08-24T14:38:32.767Z,68.30
2017-08-24T14:41:04.198Z,68.30
2017-08-24T14:43:35.615Z,68.30
2017-08-24T14:46:06.419Z,68.20
2017-08-24T14:48:37.122Z,67.50
2017-08-24T14:51:07.903Z,67.50
2017-08-24T14:53:38.512Z,67.50
2017-08-24T14:56:09.066Z,67.70
2017-08-24T14:58:39.721Z,67.60
2017-08-24T15:01:10.321Z,67.00
2017-08-24T15:03:40.866Z,66.60
2017-08-24T15:06:11.512Z,66.40
2017-08-24T15:08:41.950Z,66.50
2017-08-24T15:11:12.533Z,66.40
2017-08-24T15:13:43.830Z,65.30
2017-08-24T15:16:14.858Z,65.30
2017-08-24T15:18:45.416Z,65.00
2017-08-24T15:21:15.989Z,64.80
2017-08-24T15:23:47.034Z,64.80
2017-08-24T15:26:17.570Z,64.60
2017-08-24T15:28:48.998Z,64.60
2017-08-24T15:31:19.819Z,64.50
2017-08-24T15:33:50.212Z,64.50
2017-08-24T15:36:20.691Z,64.60
2017-08-24T15:38:51.021Z,64.20
2017-08-24T15:41:21.488Z,64.50
2017-08-24T15:43:51.848Z,64.90
2017-08-24T15:46:22.386Z,64.10
2017-08-24T15:48:52.993Z,64.70
2017-08-24T15:51:24.128Z,64.50
2017-08-24T15:53:54.693Z,64.70
2017-08-24T15:56:25.240Z,65.10
2017-08-24T15:58:55.396Z,65.20
2017-08-24T16:01:26.142Z,65.50
2017-08-24T16:03:56.879Z,66.00
2017-08-24T16:06:27.723Z,65.90
2017-08-24T16:08:58.354Z,65.90
2017-08-24T16:11:28.990Z,66.00
2017-08-24T16:13:59.388Z,66.10
2017-08-24T16:16:30.439Z,66.40
2017-08-24T16:19:00.830Z,65.90
2017-08-24T16:21:31.391Z,66.10
2017-08-24T16:24:01.904Z,66.00
2017-08-24T16:26:32.355Z,65.80
2017-08-24T16:29:02.813Z,66.00
2017-08-24T16:31:33.324Z,65.50
2017-08-24T16:34:03.775Z,66.00
2017-08-24T16:36:34.798Z,66.40
2017-08-24T16:39:05.526Z,66.60
2017-08-24T16:41:36.784Z,66.60
2017-08-24T16:44:08.209Z,66.80
2017-08-24T16:46:39.414Z,67.00
2017-08-24T16:49:09.810Z,67.00
2017-08-24T16:51:41.902Z,67.40
2017-08-24T16:54:15.724Z,67.10
2017-08-24T16:56:46.184Z,67.30
2017-08-24T16:59:17.358Z,67.60
2017-08-24T17:01:49.041Z,68.50
2017-08-24T17:04:19.660Z,68.00
2017-08-24T17:06:50.291Z,68.00
2017-08-24T17:09:20.922Z,67.70
2017-08-24T17:11:56.840Z,67.70
2017-08-24T17:14:27.251Z,68.00
2017-08-24T17:16:58.228Z,68.30
2017-08-24T17:19:28.640Z,68.20
2017-08-24T17:21:59.163Z,68.10
2017-08-24T17:24:29.662Z,67.60
2017-08-24T17:27:00.264Z,68.20
2017-08-24T17:29:30.777Z,68.10
2017-08-24T17:32:01.215Z,68.20
2017-08-24T17:34:31.624Z,68.30
2017-08-24T17:37:02.996Z,68.10
2017-08-24T17:39:33.443Z,68.10
2017-08-24T17:42:03.853Z,67.70
2017-08-24T17:44:34.353Z,68.10
2017-08-24T17:47:04.792Z,68.10
2017-08-24T17:49:35.292Z,68.30
2017-08-24T17:52:05.829Z,68.40
2017-08-24T17:54:36.153Z,68.60
2017-08-24T17:57:06.646Z,68.80
2017-08-24T17:59:37.149Z,69.20
2017-08-24T18:02:08.522Z,69.90
2017-08-24T18:04:39.092Z,70.10
2017-08-24T18:07:09.369Z,70.10
2017-08-24T18:09:39.868Z,70.70
2017-08-24T18:12:10.346Z,70.90
2017-08-24T18:14:40.855Z,71.20
2017-08-24T18:17:11.606Z,71.40
2017-08-24T18:19:42.086Z,71.40
2017-08-24T18:22:12.505Z,71.50
2017-08-24T18:24:43.018Z,71.60
2017-08-24T18:27:13.516Z,72.00
2017-08-24T18:29:44.162Z,71.80
2017-08-24T18:32:14.586Z,71.60
2017-08-24T18:34:45.130Z,71.80
2017-08-24T18:37:15.351Z,72.10
2017-08-24T18:39:45.720Z,71.90
2017-08-24T18:42:16.262Z,71.80
2017-08-24T18:44:46.876Z,72.00
2017-08-24T18:47:17.462Z,72.60
2017-08-24T18:49:48.013Z,73.00
2017-08-24T18:52:18.470Z,73.30
2017-08-24T18:54:48.929Z,73.00
2017-08-24T18:57:19.291Z,72.70
2017-08-24T18:59:49.778Z,72.50
2017-08-24T19:02:20.458Z,73.40
2017-08-24T19:04:51.057Z,72.70
2017-08-24T19:07:21.711Z,72.70
2017-08-24T19:09:52.192Z,72.80
2017-08-24T19:12:22.623Z,73.10
2017-08-24T19:14:53.226Z,73.90
2017-08-24T19:17:24.184Z,74.80
2017-08-24T19:19:54.688Z,75.50
2017-08-24T19:22:25.253Z,75.30
2017-08-24T19:24:55.640Z,74.90
2017-08-24T19:27:25.944Z,74.50
2017-08-24T19:29:56.362Z,74.60
2017-08-24T19:32:26.673Z,74.80
2017-08-24T19:34:57.206Z,75.00
2017-08-24T19:37:28.441Z,75.30
2017-08-24T19:39:58.910Z,76.20
2017-08-24T19:42:29.843Z,76.30
2017-08-24T19:45:00.366Z,76.30
2017-08-24T19:47:31.647Z,75.40
2017-08-24T19:50:02.101Z,75.40
2017-08-24T19:52:32.494Z,75.30
2017-08-24T19:55:03.013Z,75.80
2017-08-24T19:57:33.530Z,76.50
2017-08-24T20:00:04.047Z,76.80
2017-08-24T20:02:34.692Z,76.90
2017-08-24T20:05:06.568Z,77.60
2017-08-24T20:07:37.219Z,76.90
2017-08-24T20:10:07.751Z,76.70
2017-08-24T20:12:38.279Z,76.90
2017-08-24T20:15:08.790Z,77.30
2017-08-24T20:17:39.817Z,77.00
2017-08-24T20:20:10.103Z,76.80
2017-08-24T20:22:40.595Z,77.10
2017-08-24T20:25:11.094Z,76.80
2017-08-24T20:27:41.538Z,77.30
2017-08-24T20:30:12.079Z,77.90
2017-08-24T20:32:42.631Z,77.90
2017-08-24T20:35:13.179Z,77.70
2017-08-24T20:37:43.762Z,77.50
2017-08-24T20:40:14.392Z,77.60
2017-08-24T20:42:45.697Z,77.80
2017-08-24T20:45:16.191Z,77.80
2017-08-24T20:47:46.686Z,78.50
2017-08-24T20:50:17.182Z,79.10
2017-08-24T20:52:47.594Z,79.00
2017-08-24T20:55:17.957Z,78.70
2017-08-24T20:57:48.513Z,78.50
2017-08-24T21:00:19.560Z,80.30
2017-08-24T21:02:50.133Z,79.60
2017-08-24T21:05:20.613Z,80.00
2017-08-24T21:07:51.230Z,80.00
2017-08-24T21:10:21.798Z,80.40
2017-08-24T21:12:53.164Z,80.40
2017-08-24T21:15:23.683Z,80.40
2017-08-24T21:17:54.699Z,80.40
2017-08-24T21:20:25.144Z,79.70
2017-08-24T21:22:55.441Z,80.70
2017-08-24T21:25:26.003Z,80.00
2017-08-24T21:27:56.374Z,79.00
2017-08-24T21:30:26.975Z,79.30
2017-08-24T21:32:57.200Z,80.10
2017-08-24T21:35:27.840Z,80.30
2017-08-24T21:37:58.312Z,80.00
2017-08-24T21:40:28.695Z,80.00
2017-08-24T21:42:59.004Z,79.50
2017-08-24T21:45:29.567Z,77.90
2017-08-24T21:47:59.920Z,78.50
2017-08-24T21:50:30.312Z,79.30
2017-08-24T21:53:00.702Z,79.90
2017-08-24T21:55:31.227Z,80.50
2017-08-24T21:58:01.532Z,81.20
2017-08-24T22:00:32.139Z,81.00
2017-08-24T22:03:02.763Z,80.90
2017-08-24T22:05:33.227Z,81.20
2017-08-24T22:08:03.716Z,81.10
2017-08-24T22:10:34.176Z,80.80
2017-08-24T22:13:04.587Z,80.50
2017-08-24T22:15:35.074Z,80.20
2017-08-24T22:18:06.583Z,80.50
2017-08-24T22:20:36.966Z,80.50
2017-08-24T22:23:07.408Z,80.10
2017-08-24T22:25:37.895Z,81.20
2017-08-24T22:28:08.427Z,81.70
2017-08-24T22:30:38.850Z,81.90
2017-08-24T22:33:09.299Z,82.10
2017-08-24T22:35:39.839Z,82.30
2017-08-24T22:38:11.219Z,82.80
2017-08-24T22:40:41.740Z,82.80
2017-08-24T22:43:12.164Z,82.80
2017-08-24T22:45:42.587Z,82.50
2017-08-24T22:48:13.954Z,82.10
2017-08-24T22:50:44.307Z,82.10
2017-08-24T22:53:19.818Z,82.00
2017-08-24T22:55:55.363Z,82.10
2017-08-24T22:58:31.161Z,81.90
2017-08-24T23:01:06.566Z,81.80
2017-08-24T23:03:42.197Z,82.20
2017-08-24T23:06:12.622Z,82.70
2017-08-24T23:08:42.972Z,83.10
2017-08-24T23:11:13.400Z,82.90
2017-08-24T23:13:43.670Z,81.80
2017-08-24T23:16:14.224Z,81.80
2017-08-24T23:18:44.664Z,82.00
2017-08-24T23:21:15.335Z,82.30
2017-08-24T23:23:45.869Z,82.10
2017-08-24T23:26:16.418Z,81.70
2017-08-24T23:28:47.005Z,81.40
2017-08-24T23:31:17.558Z,81.40
2017-08-24T23:33:48.191Z,81.50
2017-08-24T23:36:18.817Z,81.30
2017-08-24T23:38:49.259Z,81.60
2017-08-24T23:41:19.536Z,82.00
2017-08-24T23:43:49.927Z,82.30
2017-08-24T23:46:21.231Z,82.10
2017-08-24T23:48:51.681Z,81.80
2017-08-24T23:51:21.941Z,81.10
2017-08-24T23:53:52.486Z,82.00
2017-08-24T23:56:23.104Z,81.20
2017-08-24T23:58:53.666Z,81.00
